createdAt,value
2022-10-12T00:00:53.069Z,19.50
2022-10-12T00:03:36.522Z,17.50
2022-10-12T00:06:09.998Z,22.80
2022-10-12T00:08:38.579Z,23.20
2022-10-12T00:11:07.059Z,31.20
2022-10-12T00:13:34.622Z,21.50
2022-10-12T00:16:03.612Z,25.30
2022-10-12T00:18:32.336Z,26.40
2022-10-12T00:21:05.182Z,24.90
2022-10-12T00:23:33.049Z,21.20
2022-10-12T00:26:02.345Z,21.60
2022-10-12T00:28:30.836Z,23.40
2022-10-12T00:30:58.698Z,21.50
2022-10-12T00:33:28.197Z,20.40
2022-10-12T00:35:56.109Z,21.10
2022-10-12T00:38:24.604Z,22.50
2022-10-12T00:40:52.907Z,22.90
2022-10-12T00:43:29.183Z,22.90
2022-10-12T00:45:58.046Z,18.80
2022-10-12T00:48:26.144Z,25.80
2022-10-12T00:50:54.353Z,17.90
2022-10-12T00:53:24.744Z,18.90
2022-10-12T00:55:55.170Z,17.20
2022-10-12T00:58:22.926Z,18.80
2022-10-12T01:00:50.862Z,18.20
2022-10-12T01:03:21.448Z,18.50
2022-10-12T01:05:49.705Z,15.70
2022-10-12T01:08:17.366Z,19.30
2022-10-12T01:10:45.083Z,20.70
2022-10-12T01:13:13.273Z,19.20
2022-10-12T01:15:45.477Z,18.00
2022-10-12T01:18:17.335Z,20.40
2022-10-12T01:20:53.496Z,18.70
2022-10-12T01:23:21.170Z,20.30
2022-10-12T01:26:04.581Z,19.20
2022-10-12T01:28:40.456Z,20.10
2022-10-12T01:31:32.356Z,22.50
2022-10-12T01:34:04.634Z,19.80
2022-10-12T01:37:01.993Z,19.10
2022-10-12T01:39:35.732Z,21.00
2022-10-12T01:42:07.693Z,20.60
2022-10-12T01:44:39.233Z,20.10
2022-10-12T01:47:10.760Z,21.40
2022-10-12T01:49:38.530Z,18.60
2022-10-12T01:52:25.032Z,18.30
2022-10-12T01:54:52.994Z,19.60
2022-10-12T01:57:20.915Z,19.60
2022-10-12T02:00:09.037Z,19.80
2022-10-12T02:02:42.808Z,20.00
2022-10-12T02:05:22.656Z,21.80
2022-10-12T02:07:53.472Z,19.90
2022-10-12T02:10:41.488Z,21.30
2022-10-12T02:13:11.812Z,18.40
2022-10-12T02:15:40.418Z,17.80
2022-10-12T02:18:09.634Z,18.10
2022-10-12T02:20:38.375Z,18.20
2022-10-12T02:23:07.363Z,17.00
2022-10-12T02:25:35.488Z,17.50
2022-10-12T02:28:09.031Z,17.60
2022-10-12T02:30:53.681Z,19.50
2022-10-12T02:33:26.494Z,19.50
2022-10-12T02:36:00.636Z,19.70
2022-10-12T02:38:32.095Z,17.10
2022-10-12T02:41:08.889Z,17.60
2022-10-12T02:43:36.525Z,17.40
2022-10-12T02:46:05.406Z,19.90
2022-10-12T02:48:34.005Z,19.10
2022-10-12T02:51:02.737Z,17.20
2022-10-12T02:53:31.066Z,19.60
2022-10-12T02:56:04.456Z,17.60
2022-10-12T02:58:32.118Z,17.90
2022-10-12T03:00:59.942Z,16.90
2022-10-12T03:03:28.069Z,20.40
2022-10-12T03:05:56.617Z,19.30
2022-10-12T03:08:24.296Z,19.00
2022-10-12T03:10:52.981Z,18.10
2022-10-12T03:13:20.847Z,22.20
2022-10-12T03:15:48.919Z,19.10
2022-10-12T03:18:16.595Z,21.20
2022-10-12T03:20:48.153Z,18.30
2022-10-12T03:23:15.974Z,17.70
2022-10-12T03:25:43.760Z,17.60
2022-10-12T03:28:11.545Z,18.50
2022-10-12T03:30:39.390Z,19.20
2022-10-12T03:33:07.051Z,19.60
2022-10-12T03:35:34.803Z,18.50
2022-10-12T03:38:03.502Z,19.40
2022-10-12T03:40:31.831Z,20.40
2022-10-12T03:43:00.043Z,19.90
2022-10-12T03:45:27.819Z,22.30
2022-10-12T03:47:55.887Z,20.10
2022-10-12T03:50:23.548Z,22.80
2022-10-12T03:52:51.416Z,18.70
2022-10-12T03:55:19.177Z,20.50
2022-10-12T03:57:46.770Z,18.70
2022-10-12T04:00:14.679Z,20.80
2022-10-12T04:02:42.470Z,20.10
2022-10-12T04:05:10.232Z,25.60
2022-10-12T04:07:38.779Z,23.80
2022-10-12T04:10:07.360Z,23.60
2022-10-12T04:12:35.365Z,27.20
2022-10-12T04:15:03.707Z,24.70
2022-10-12T04:17:31.509Z,21.70
2022-10-12T04:19:59.191Z,28.00
2022-10-12T04:22:27.546Z,28.50
2022-10-12T04:24:55.263Z,26.90
2022-10-12T04:27:22.992Z,29.30
2022-10-12T04:29:51.066Z,29.20
2022-10-12T04:32:19.264Z,35.50
2022-10-12T04:34:46.877Z,32.60
2022-10-12T04:37:14.640Z,38.50
2022-10-12T04:39:42.628Z,32.80
2022-10-12T04:42:10.518Z,27.20
2022-10-12T04:44:38.182Z,26.40
2022-10-12T04:47:05.797Z,28.40
2022-10-12T04:49:33.561Z,28.50
2022-10-12T04:52:01.220Z,26.50
2022-10-12T04:54:29.308Z,25.50
2022-10-12T04:56:56.959Z,29.90
2022-10-12T04:59:24.691Z,27.70
2022-10-12T05:01:52.448Z,27.80
2022-10-12T05:04:20.739Z,26.50
2022-10-12T05:06:48.608Z,25.80
2022-10-12T05:09:17.232Z,32.90
2022-10-12T05:11:45.580Z,35.30
2022-10-12T05:14:13.433Z,36.60
2022-10-12T05:16:41.217Z,45.30
2022-10-12T05:19:08.900Z,42.50
2022-10-12T05:21:36.508Z,34.90
2022-10-12T05:24:04.706Z,36.10
2022-10-12T05:26:32.676Z,33.30
2022-10-12T05:29:00.505Z,32.50
2022-10-12T05:31:28.511Z,32.00
2022-10-12T05:33:57.104Z,30.20
2022-10-12T05:36:24.963Z,32.10
2022-10-12T05:38:52.933Z,35.00
2022-10-12T05:41:20.692Z,40.90
2022-10-12T05:43:49.147Z,46.50
2022-10-12T05:46:17.042Z,48.00
2022-10-12T05:48:44.713Z,42.80
2022-10-12T05:51:12.460Z,46.10
2022-10-12T05:53:40.735Z,46.30
2022-10-12T05:56:08.806Z,41.30
2022-10-12T05:58:36.782Z,49.70
2022-10-12T06:01:08.533Z,53.90
2022-10-12T06:03:36.602Z,68.50
2022-10-12T06:06:05.293Z,68.20
2022-10-12T06:08:33.770Z,56.00
2022-10-12T06:11:02.019Z,45.90
2022-10-12T06:13:29.807Z,39.80
2022-10-12T06:15:58.289Z,41.60
2022-10-12T06:18:25.957Z,42.10
2022-10-12T06:21:21.045Z,42.90
2022-10-12T06:23:42.777Z,41.40
2022-10-12T06:26:17.298Z,44.00
2022-10-12T06:28:45.255Z,47.70
2022-10-12T06:31:14.264Z,52.70
2022-10-12T06:33:42.021Z,56.40
2022-10-12T06:36:10.508Z,60.70
2022-10-12T06:38:38.297Z,63.40
2022-10-12T06:41:06.029Z,75.50
2022-10-12T06:43:34.834Z,79.70
2022-10-12T06:46:02.854Z,74.40
2022-10-12T06:48:30.917Z,72.90
2022-10-12T06:50:59.644Z,70.00
2022-10-12T06:53:31.398Z,70.80
2022-10-12T06:55:59.585Z,67.60
2022-10-12T06:58:27.271Z,62.90
2022-10-12T07:00:55.479Z,60.50
2022-10-12T07:03:24.198Z,60.40
2022-10-12T07:05:52.479Z,54.70
2022-10-12T07:08:20.242Z,55.00
2022-10-12T07:10:48.015Z,50.00
2022-10-12T07:13:15.872Z,51.10
2022-10-12T07:15:49.361Z,46.80
2022-10-12T07:18:17.134Z,51.20
2022-10-12T07:20:45.093Z,43.20
2022-10-12T07:23:13.193Z,33.40
2022-10-12T07:25:41.548Z,28.80
2022-10-12T07:28:09.249Z,29.80
2022-10-12T07:30:37.177Z,25.60
2022-10-12T07:33:04.949Z,26.10
2022-10-12T07:35:32.708Z,26.10
2022-10-12T07:38:00.404Z,24.60
2022-10-12T07:40:28.576Z,26.70
2022-10-12T07:43:15.228Z,25.30
2022-10-12T07:45:44.582Z,23.80
2022-10-12T07:48:12.512Z,22.60
2022-10-12T07:50:40.224Z,26.10
2022-10-12T07:53:08.244Z,28.30
2022-10-12T07:55:35.920Z,23.60
2022-10-12T07:58:04.054Z,24.40
2022-10-12T08:00:32.561Z,23.90
2022-10-12T08:03:00.428Z,21.60
2022-10-12T08:05:28.155Z,22.50
2022-10-12T08:07:56.055Z,20.20
2022-10-12T08:10:23.817Z,23.30
2022-10-12T08:12:52.387Z,21.60
2022-10-12T08:15:20.412Z,18.30
2022-10-12T08:17:48.361Z,21.20
2022-10-12T08:20:16.053Z,20.40
2022-10-12T08:22:43.661Z,18.90
2022-10-12T08:25:12.042Z,22.50
2022-10-12T08:27:40.199Z,19.40
2022-10-12T08:30:08.692Z,21.70
2022-10-12T08:32:36.315Z,23.70
2022-10-12T08:35:04.368Z,22.00
2022-10-12T08:37:32.214Z,21.90
2022-10-12T08:40:03.351Z,19.70
2022-10-12T08:42:34.671Z,21.90
2022-10-12T08:45:13.741Z,20.30
2022-10-12T08:47:44.638Z,20.90
2022-10-12T08:50:22.034Z,17.80
2022-10-12T08:55:26.360Z,16.60
2022-10-12T08:57:54.124Z,14.40
2022-10-12T09:00:22.055Z,18.20
2022-10-12T09:02:53.562Z,14.60
2022-10-12T09:05:29.396Z,15.20
2022-10-12T09:08:02.997Z,17.40
2022-10-12T09:10:33.528Z,16.80
2022-10-12T09:13:20.227Z,16.10
2022-10-12T09:16:02.535Z,13.20
2022-10-12T09:18:40.637Z,13.00
2022-10-12T09:21:11.681Z,11.60
2022-10-12T09:23:40.577Z,11.50
2022-10-12T09:26:22.263Z,13.90
2022-10-12T09:28:59.340Z,13.30
2022-10-12T09:31:33.251Z,13.70
2022-10-12T09:34:02.658Z,11.70
2022-10-12T09:36:32.465Z,13.20
2022-10-12T09:39:03.020Z,12.40
2022-10-12T09:41:35.655Z,10.80
2022-10-12T09:44:04.668Z,8.20
2022-10-12T09:46:42.156Z,13.30
2022-10-12T09:49:10.228Z,10.40
2022-10-12T09:51:38.201Z,10.60
2022-10-12T09:54:06.134Z,9.60
2022-10-12T09:56:39.962Z,10.80
2022-10-12T09:59:18.453Z,9.80
2022-10-12T10:01:57.119Z,8.70
2022-10-12T10:04:26.810Z,9.10
2022-10-12T10:06:54.677Z,9.60
2022-10-12T10:09:30.356Z,9.90
2022-10-12T10:12:11.195Z,7.80
2022-10-12T10:14:39.076Z,10.10
2022-10-12T10:17:06.734Z,10.50
2022-10-12T10:19:34.693Z,8.30
2022-10-12T10:22:08.842Z,11.20
2022-10-12T10:24:36.567Z,9.80
2022-10-12T10:27:05.956Z,10.50
2022-10-12T10:29:38.973Z,9.00
2022-10-12T10:32:15.975Z,8.70
2022-10-12T10:34:43.811Z,8.90
2022-10-12T10:37:20.883Z,10.90
2022-10-12T10:39:51.821Z,9.90
2022-10-12T10:42:21.056Z,7.50
2022-10-12T10:44:53.157Z,7.40
2022-10-12T10:47:21.472Z,6.80
2022-10-12T10:49:52.651Z,7.80
2022-10-12T10:52:37.542Z,9.40
2022-10-12T10:55:25.431Z,7.10
2022-10-12T10:58:05.379Z,7.80
2022-10-12T11:00:40.728Z,7.60
2022-10-12T11:03:14.802Z,8.20
2022-10-12T11:05:48.931Z,10.00
2022-10-12T11:08:22.765Z,8.30
2022-10-12T11:10:53.458Z,6.90
2022-10-12T11:13:21.119Z,9.10
2022-10-12T11:15:51.344Z,9.10
2022-10-12T11:18:23.989Z,6.80
2022-10-12T11:21:11.164Z,5.40
2022-10-12T11:23:48.324Z,6.60
2022-10-12T11:28:44.048Z,7.60
2022-10-12T11:31:24.000Z,7.00
2022-10-12T11:33:52.287Z,6.90
2022-10-12T11:36:21.476Z,10.20
2022-10-12T11:39:22.638Z,9.10
2022-10-12T11:42:17.007Z,7.50
2022-10-12T11:44:47.657Z,6.30
2022-10-12T11:47:18.307Z,5.90
2022-10-12T11:49:49.323Z,6.40
2022-10-12T11:52:17.789Z,7.90
2022-10-12T11:54:53.033Z,5.50
2022-10-12T11:57:26.323Z,6.90
2022-10-12T11:59:57.423Z,9.30
2022-10-12T12:02:31.373Z,7.10
2022-10-12T12:04:59.445Z,7.30
2022-10-12T12:07:27.151Z,6.50
2022-10-12T12:09:55.096Z,6.80
2022-10-12T12:12:24.406Z,5.20
2022-10-12T12:14:55.315Z,7.70
2022-10-12T12:17:29.366Z,7.00
2022-10-12T12:20:00.873Z,8.90
2022-10-12T12:22:33.806Z,8.60
2022-10-12T12:25:04.508Z,4.60
2022-10-12T12:27:34.402Z,8.80
2022-10-12T12:30:04.463Z,6.70
2022-10-12T12:32:51.227Z,14.60
2022-10-12T12:35:21.050Z,5.50
2022-10-12T12:37:49.724Z,5.70
2022-10-12T12:40:21.917Z,6.90
2022-10-12T12:42:50.375Z,5.20
2022-10-12T12:45:33.808Z,5.60
2022-10-12T12:48:01.609Z,7.30
2022-10-12T12:50:36.828Z,5.70
2022-10-12T12:53:15.939Z,8.80
2022-10-12T12:55:59.469Z,7.70
2022-10-12T12:58:42.424Z,5.50
2022-10-12T13:01:10.587Z,8.50
2022-10-12T13:03:55.839Z,8.60
2022-10-12T13:06:33.940Z,9.60
2022-10-12T13:09:14.005Z,9.70
2022-10-12T13:11:54.454Z,11.80
2022-10-12T13:14:22.136Z,5.30
2022-10-12T13:17:32.198Z,7.90
2022-10-12T13:20:01.572Z,9.70
2022-10-12T13:22:35.350Z,8.30
2022-10-12T13:25:07.052Z,7.20
2022-10-12T13:27:39.002Z,6.30
2022-10-12T13:30:15.008Z,6.10
2022-10-12T13:33:06.368Z,9.30
2022-10-12T13:35:37.159Z,10.90
2022-10-12T13:38:22.290Z,22.70
2022-10-12T13:40:56.215Z,43.70
2022-10-12T13:43:28.141Z,61.70
2022-10-12T13:45:56.353Z,16.60
2022-10-12T13:48:46.329Z,12.20
2022-10-12T13:51:21.645Z,9.80
2022-10-12T13:53:50.231Z,11.30
2022-10-12T13:56:20.041Z,7.30
2022-10-12T13:58:48.216Z,9.80
2022-10-12T14:01:16.129Z,8.70
2022-10-12T14:03:44.964Z,18.50
2022-10-12T14:06:29.830Z,13.50
2022-10-12T14:08:59.677Z,16.40
2022-10-12T14:11:28.384Z,20.10
2022-10-12T14:13:57.019Z,9.00
2022-10-12T14:16:24.889Z,19.80
2022-10-12T14:18:55.716Z,11.40
2022-10-12T14:21:23.891Z,8.40
2022-10-12T14:23:53.509Z,11.20
2022-10-12T14:26:24.229Z,9.00
2022-10-12T14:28:52.152Z,9.80
2022-10-12T14:31:39.833Z,8.30
2022-10-12T14:34:26.846Z,8.30
2022-10-12T14:37:24.501Z,6.00
2022-10-12T14:39:59.428Z,6.50
2022-10-12T14:42:33.618Z,9.40
2022-10-12T14:45:02.435Z,7.20
2022-10-12T14:47:40.613Z,7.50
2022-10-12T14:50:09.882Z,11.40
2022-10-12T14:52:42.423Z,6.20
2022-10-12T14:55:30.969Z,8.10
2022-10-12T15:00:33.952Z,7.40
2022-10-12T15:03:02.663Z,7.90
2022-10-12T15:05:32.479Z,36.00
2022-10-12T15:08:01.053Z,28.50
2022-10-12T15:10:30.143Z,119.40
2022-10-12T15:12:57.762Z,114.20
2022-10-12T15:15:29.217Z,220.00
2022-10-12T15:17:58.063Z,112.00
2022-10-12T15:20:26.900Z,83.00
2022-10-12T15:22:55.189Z,65.50
2022-10-12T15:25:24.101Z,67.20
2022-10-12T15:27:52.073Z,45.20
2022-10-12T15:30:20.070Z,52.20
2022-10-12T15:32:48.313Z,45.30
2022-10-12T15:35:26.117Z,28.00
2022-10-12T15:37:56.346Z,24.90
2022-10-12T15:40:24.804Z,22.10
2022-10-12T15:42:52.576Z,21.40
2022-10-12T15:45:25.563Z,20.00
2022-10-12T15:47:54.041Z,19.20
2022-10-12T15:50:24.566Z,17.20
2022-10-12T15:52:53.927Z,21.00
2022-10-12T15:55:26.038Z,20.70
2022-10-12T15:57:54.514Z,19.60
2022-10-12T16:00:23.301Z,19.20
2022-10-12T16:02:51.888Z,25.80
2022-10-12T16:05:21.761Z,26.40
2022-10-12T16:07:49.561Z,23.60
2022-10-12T16:10:18.861Z,24.00
2022-10-12T16:12:48.365Z,25.40
2022-10-12T16:15:18.690Z,24.80
2022-10-12T16:17:46.554Z,20.90
2022-10-12T16:20:14.445Z,22.30
2022-10-12T16:22:42.543Z,21.00
2022-10-12T16:25:12.177Z,19.70
2022-10-12T16:27:39.986Z,21.60
2022-10-12T16:30:08.553Z,16.50
2022-10-12T16:32:37.232Z,18.30
2022-10-12T16:35:06.242Z,18.20
2022-10-12T16:37:34.500Z,20.30
2022-10-12T16:40:03.099Z,16.60
2022-10-12T16:42:31.054Z,16.90
2022-10-12T16:44:58.955Z,21.00
2022-10-12T16:47:26.803Z,25.40
2022-10-12T16:49:54.713Z,21.00
2022-10-12T16:52:25.600Z,26.80
2022-10-12T16:54:56.777Z,21.00
2022-10-12T16:57:24.907Z,24.50
2022-10-12T16:59:53.281Z,28.90
2022-10-12T17:02:22.610Z,26.70
2022-10-12T17:04:51.538Z,26.40
2022-10-12T17:07:20.012Z,24.40
2022-10-12T17:09:49.558Z,21.80
2022-10-12T17:12:17.993Z,22.40
2022-10-12T17:14:46.212Z,18.80
2022-10-12T17:17:14.281Z,18.60
2022-10-12T17:19:42.678Z,18.80
2022-10-12T17:22:11.762Z,16.30
2022-10-12T17:24:40.748Z,16.90
2022-10-12T17:27:09.944Z,17.40
2022-10-12T17:29:40.332Z,18.10
2022-10-12T17:32:09.465Z,23.70
2022-10-12T17:34:39.016Z,19.10
2022-10-12T17:37:08.376Z,20.00
2022-10-12T17:39:37.055Z,19.80
2022-10-12T17:42:05.523Z,17.60
2022-10-12T17:44:34.019Z,15.80
2022-10-12T17:47:01.759Z,16.30
2022-10-12T17:49:29.649Z,22.10
2022-10-12T17:51:57.924Z,20.30
2022-10-12T17:54:27.050Z,17.20
2022-10-12T17:56:56.530Z,17.90
2022-10-12T17:59:25.218Z,13.50
2022-10-12T18:01:53.688Z,13.30
2022-10-12T18:04:23.593Z,16.80
2022-10-12T18:06:53.331Z,15.20
2022-10-12T18:09:21.481Z,24.20
2022-10-12T18:11:49.654Z,17.70
2022-10-12T18:14:17.527Z,18.10
2022-10-12T18:16:45.393Z,20.90
2022-10-12T18:19:13.668Z,20.40
2022-10-12T18:21:41.939Z,27.70
2022-10-12T18:24:16.912Z,31.10
2022-10-12T18:26:47.028Z,33.20
2022-10-12T18:29:15.893Z,42.80
2022-10-12T18:31:43.950Z,56.70
2022-10-12T18:34:12.141Z,66.80
2022-10-12T18:36:41.526Z,72.60
2022-10-12T18:39:10.325Z,61.60
2022-10-12T18:41:38.902Z,63.30
2022-10-12T18:44:06.966Z,93.60
2022-10-12T18:46:36.963Z,107.00
2022-10-12T18:49:10.013Z,100.00
2022-10-12T18:51:39.373Z,73.60
2022-10-12T18:54:07.957Z,70.60
2022-10-12T18:56:36.437Z,44.10
2022-10-12T18:59:04.916Z,40.40
2022-10-12T19:01:34.492Z,30.50
2022-10-12T19:04:02.994Z,26.60
2022-10-12T19:06:32.841Z,19.70
2022-10-12T19:09:02.015Z,16.80
2022-10-12T19:11:31.318Z,19.10
2022-10-12T19:14:04.708Z,17.30
2022-10-12T19:16:32.679Z,19.40
2022-10-12T19:19:06.684Z,17.60
2022-10-12T19:21:35.092Z,13.30
2022-10-12T19:24:04.362Z,15.20
2022-10-12T19:26:32.956Z,17.30
2022-10-12T19:29:01.680Z,15.40
2022-10-12T19:31:32.933Z,15.20
2022-10-12T19:34:02.787Z,16.70
2022-10-12T19:36:31.267Z,16.30
2022-10-12T19:39:00.998Z,16.20
2022-10-12T19:41:30.334Z,23.50
2022-10-12T19:43:58.552Z,26.60
2022-10-12T19:46:26.832Z,25.00
2022-10-12T19:48:55.820Z,24.60
2022-10-12T19:51:24.824Z,21.90
2022-10-12T19:53:56.773Z,21.60
2022-10-12T19:56:24.843Z,22.00
2022-10-12T19:58:53.442Z,27.40
2022-10-12T20:01:24.629Z,30.60
2022-10-12T20:03:54.177Z,30.50
2022-10-12T20:06:25.752Z,27.20
2022-10-12T20:08:55.679Z,27.90
2022-10-12T20:11:24.903Z,25.40
2022-10-12T20:13:53.729Z,25.60
2022-10-12T20:16:22.410Z,27.10
2022-10-12T20:18:52.843Z,24.80
2022-10-12T20:21:22.340Z,23.80
2022-10-12T20:23:51.505Z,28.00
2022-10-12T20:26:21.065Z,28.30
2022-10-12T20:28:50.865Z,29.60
2022-10-12T20:31:23.332Z,26.90
2022-10-12T20:33:53.123Z,27.10
2022-10-12T20:36:22.860Z,24.90
2022-10-12T20:38:51.748Z,30.40
2022-10-12T20:41:21.753Z,31.10
2022-10-12T20:43:49.628Z,26.40
2022-10-12T20:46:18.414Z,27.20
2022-10-12T20:48:46.381Z,26.90
2022-10-12T20:51:20.196Z,29.80
2022-10-12T20:53:47.949Z,24.10
2022-10-12T20:56:15.727Z,25.90
2022-10-12T20:58:43.478Z,27.90
2022-10-12T21:01:12.770Z,29.40
2022-10-12T21:03:41.053Z,26.90
2022-10-12T21:06:11.702Z,27.20
2022-10-12T21:08:41.045Z,20.60
2022-10-12T21:11:10.179Z,21.80
2022-10-12T21:13:41.230Z,22.60
2022-10-12T21:16:09.692Z,25.80
2022-10-12T21:18:38.533Z,26.80
2022-10-12T21:21:08.929Z,23.10
2022-10-12T21:23:37.399Z,24.00
2022-10-12T21:26:12.925Z,26.20
2022-10-12T21:28:41.631Z,21.30
2022-10-12T21:31:10.522Z,22.30
2022-10-12T21:33:39.303Z,22.50
2022-10-12T21:36:11.779Z,24.70
2022-10-12T21:38:40.461Z,20.80
2022-10-12T21:41:08.724Z,25.00
2022-10-12T21:43:37.524Z,18.20
2022-10-12T21:46:13.079Z,21.20
2022-10-12T21:48:41.038Z,21.60
2022-10-12T21:51:11.881Z,19.90
2022-10-12T21:53:40.812Z,21.70
2022-10-12T21:56:14.264Z,17.80
2022-10-12T21:58:42.844Z,19.80
2022-10-12T22:01:12.202Z,19.20
2022-10-12T22:03:40.629Z,19.10
2022-10-12T22:06:12.223Z,17.20
2022-10-12T22:08:40.768Z,15.90
2022-10-12T22:11:10.300Z,20.70
2022-10-12T22:13:39.055Z,20.20
2022-10-12T22:16:08.582Z,22.40
2022-10-12T22:18:36.536Z,20.10
2022-10-12T22:21:05.850Z,20.80
2022-10-12T22:23:34.310Z,22.80
2022-10-12T22:26:03.582Z,22.10
2022-10-12T22:28:31.843Z,20.40
2022-10-12T22:30:59.966Z,22.80
2022-10-12T22:33:28.061Z,26.90
2022-10-12T22:36:00.638Z,24.20
2022-10-12T22:38:28.973Z,27.00
2022-10-12T22:40:58.260Z,22.20
2022-10-12T22:43:28.373Z,22.70
2022-10-12T22:45:56.883Z,22.20
2022-10-12T22:48:25.565Z,25.60
2022-10-12T22:50:55.784Z,21.50
2022-10-12T22:53:24.883Z,23.70
2022-10-12T22:55:58.548Z,23.70
2022-10-12T22:58:26.442Z,21.20
2022-10-12T23:01:00.984Z,21.80
2022-10-12T23:03:29.648Z,21.80
2022-10-12T23:05:57.476Z,26.30
2022-10-12T23:08:25.994Z,23.60
2022-10-12T23:10:54.064Z,23.20
2022-10-12T23:13:21.818Z,25.40
2022-10-12T23:15:49.592Z,20.80
2022-10-12T23:18:17.356Z,22.20
2022-10-12T23:20:45.029Z,22.90
2022-10-12T23:23:12.987Z,22.30
2022-10-12T23:25:40.749Z,23.50
2022-10-12T23:28:09.646Z,22.80
2022-10-12T23:30:37.922Z,22.90
2022-10-12T23:33:05.997Z,22.30
2022-10-12T23:35:33.964Z,23.20
2022-10-12T23:38:01.722Z,24.50
2022-10-12T23:40:29.481Z,19.90
2022-10-12T23:42:57.862Z,19.90
2022-10-12T23:45:25.622Z,22.10
2022-10-12T23:47:53.460Z,24.10
2022-10-12T23:50:21.151Z,21.70
2022-10-12T23:52:49.219Z,21.50
2022-10-12T23:55:17.702Z,21.80
2022-10-12T23:57:47.391Z,23.90
